Time;durP1;ratioP1;P1;durP2;ratioP2;P2;SDS_P1;SDS_P2;PMS_P1;PMS_P2;Temp;Humidity;BMP_temperature;BMP_pressure;BME280_temperature;BME280_humidity;BME280_pressure;Samples;Min_cycle;Max_cycle;Signal;HPM_P1;HPM_P2
2020/12/05 00:01:50;;;;;;;20.00;15.13;;;4.90;99.90;;;3.21;100.00;98325.28;5018166;27;101283;-62
2020/12/05 00:04:16;;;;;;;23.17;16.03;;;4.90;99.90;;;3.31;100.00;98324.34;5018640;27;100667;-62
2020/12/05 00:06:43;;;;;;;21.47;14.73;;;4.90;99.90;;;3.51;100.00;98339.75;5017230;27;100141;-62
2020/12/05 00:09:09;;;;;;;22.83;15.40;;;4.90;99.90;;;3.49;100.00;98354.13;5019032;27;100175;-62
2020/12/05 00:11:36;;;;;;;23.00;15.47;;;5.00;99.90;;;3.32;100.00;98342.69;5027406;27;101512;-62
2020/12/05 00:14:02;;;;;;;19.90;14.43;;;5.00;99.90;;;3.34;100.00;98324.03;5027334;27;101298;-61
2020/12/05 00:16:30;;;;;;;19.20;14.47;;;5.00;99.90;;;3.41;100.00;98317.09;5027793;27;99978;-62
2020/12/05 00:18:57;;;;;;;20.93;15.07;;;4.90;99.90;;;3.51;100.00;98318.63;5028370;27;100118;-62
2020/12/05 00:21:24;;;;;;;20.83;14.67;;;5.10;99.90;;;3.46;100.00;98325.38;5026976;27;100851;-63
2020/12/05 00:23:51;;;;;;;20.03;14.93;;;5.10;99.90;;;3.47;100.00;98319.09;5027455;27;100729;-62
2020/12/05 00:26:20;;;;;;;19.27;14.13;;;5.10;99.90;;;3.44;100.00;98314.97;5027734;27;99944;-63
2020/12/05 00:28:48;;;;;;;14.60;10.47;;;5.20;99.90;;;3.65;100.00;98313.69;5028252;27;100271;-62
2020/12/05 00:31:15;;;;;;;21.33;15.13;;;5.10;99.90;;;3.58;100.00;98306.41;5026939;27;101038;-62
2020/12/05 00:33:43;;;;;;;20.93;15.70;;;5.40;99.90;;;3.60;100.00;98299.13;5027855;27;100463;-61
2020/12/05 00:36:10;;;;;;;23.60;15.67;;;5.20;99.90;;;3.61;100.00;98299.94;5027016;27;100218;-62
2020/12/05 00:38:37;;;;;;;20.33;13.90;;;5.20;99.90;;;3.68;100.00;98305.44;5028243;27;100130;-61
2020/12/05 00:41:04;;;;;;;21.93;14.43;;;5.20;99.90;;;3.70;100.00;98293.72;5027242;27;100666;-61
2020/12/05 00:43:31;;;;;;;19.57;14.93;;;5.20;99.90;;;3.85;100.00;98307.94;5027608;27;101250;-61
2020/12/05 00:45:57;;;;;;;20.37;14.97;;;5.80;99.90;;;3.85;100.00;98310.56;5027316;27;100026;-61
2020/12/05 00:48:24;;;;;;;21.17;14.50;;;5.40;99.90;;;3.91;100.00;98311.75;5027650;27;100077;-62
2020/12/05 00:50:51;;;;;;;23.40;15.37;;;5.40;99.90;;;3.89;100.00;98311.91;5025041;27;101131;-61
2020/12/05 00:53:18;;;;;;;19.87;14.67;;;5.40;99.90;;;3.79;100.00;98313.88;5042041;27;102583;-61
2020/12/05 00:55:45;;;;;;;19.90;13.97;;;5.50;99.90;;;3.88;100.00;98318.19;5042209;27;99975;-61
2020/12/05 00:58:12;;;;;;;18.63;13.43;;;5.60;99.90;;;3.96;100.00;98320.84;5027742;27;100247;-60
2020/12/05 01:00:39;;;;;;;20.53;14.27;;;5.60;99.90;;;4.00;100.00;98325.81;5026603;27;100900;-61
2020/12/05 01:03:05;;;;;;;17.67;13.47;;;5.70;99.90;;;3.90;100.00;98332.09;5027265;27;100906;-62
2020/12/05 01:05:32;;;;;;;17.53;13.67;;;5.60;99.90;;;3.86;100.00;98317.50;5027446;27;99977;-61
2020/12/05 01:08:00;;;;;;;19.23;14.13;;;5.60;99.90;;;3.89;100.00;98321.66;5027474;27;100115;-61
2020/12/05 01:10:27;;;;;;;18.33;13.43;;;5.60;99.90;;;3.83;100.00;98320.47;5026135;27;100853;-62
2020/12/05 01:12:53;;;;;;;17.80;13.80;;;5.80;99.90;;;3.92;100.00;98318.69;5026586;27;101142;-62
2020/12/05 01:15:20;;;;;;;19.10;14.40;;;5.60;99.90;;;3.88;100.00;98315.53;5026036;27;100288;-61
2020/12/05 01:17:46;;;;;;;19.70;14.70;;;5.70;99.90;;;3.89;100.00;98305.78;5027456;27;100385;-61
2020/12/05 01:20:13;;;;;;;17.10;13.57;;;5.60;99.90;;;3.86;100.00;98319.34;5026338;27;101260;-61
2020/12/05 01:22:39;;;;;;;18.23;13.20;;;5.70;99.90;;;3.77;100.00;98323.78;5026692;27;100250;-62
2020/12/05 01:25:08;;;;;;;16.47;12.77;;;5.10;99.90;;;3.74;100.00;98321.47;5026946;27;99975;-61
2020/12/05 01:27:34;;;;;;;20.43;13.90;;;5.70;99.90;;;3.86;100.00;98314.88;5027625;27;100219;-62
2020/12/05 01:30:01;;;;;;;19.90;14.60;;;5.70;99.90;;;4.18;100.00;98315.91;5026851;27;100638;-62
2020/12/05 01:32:27;;;;;;;17.57;13.63;;;5.50;99.90;;;4.32;100.00;98318.72;5026811;27;100697;-61
2020/12/05 01:34:54;;;;;;;18.90;13.50;;;5.70;99.90;;;4.32;100.00;98313.41;5026012;27;100139;-61
2020/12/05 01:37:20;;;;;;;19.30;14.03;;;5.90;99.90;;;4.38;100.00;98319.03;5026975;27;100066;-61
2020/12/05 01:39:46;;;;;;;18.47;13.17;;;5.90;99.90;;;4.37;100.00;98315.53;5026327;27;101321;-61
2020/12/05 01:42:14;;;;;;;18.20;11.63;;;5.90;99.90;;;4.26;100.00;98305.28;5028718;27;99995;-62
2020/12/05 01:44:40;;;;;;;19.07;13.43;;;6.00;99.90;;;4.41;100.00;98310.75;5030012;27;101841;-62
2020/12/05 01:47:09;;;;;;;18.13;12.97;;;6.00;99.90;;;4.22;100.00;98315.38;5030464;27;100115;-61
2020/12/05 01:49:36;;;;;;;18.23;13.00;;;6.00;99.90;;;4.26;100.00;98319.38;5030438;27;100774;-61
2020/12/05 01:52:03;;;;;;;17.93;13.20;;;6.10;99.90;;;4.24;100.00;98316.06;5030585;27;101095;-61
2020/12/05 01:54:30;;;;;;;17.23;12.80;;;6.00;99.90;;;4.19;100.00;98310.44;5030406;27;100081;-62
2020/12/05 01:57:00;;;;;;;17.83;12.63;;;6.00;99.90;;;4.13;100.00;98303.16;5030388;27;100137;-61
2020/12/05 01:59:27;;;;;;;18.33;12.53;;;6.10;99.90;;;4.08;100.00;98300.16;5028795;27;101275;-61
2020/12/05 02:01:57;;;;;;;16.30;12.00;;;6.00;99.90;;;4.02;100.00;98308.78;5030110;27;100607;-61
2020/12/05 02:04:28;;;;;;;17.40;12.63;;;5.90;99.90;;;4.06;100.00;98318.03;5029986;27;99884;-62
2020/12/05 02:07:12;;;;;;;17.13;12.43;;;5.90;99.90;;;4.13;100.00;98307.63;5030607;27;100088;-62
2020/12/05 02:09:44;;;;;;;18.77;13.60;;;5.90;99.90;;;4.28;100.00;98316.56;5029673;27;100100;-61
2020/12/05 02:12:21;;;;;;;14.53;11.53;;;6.90;99.90;;;4.46;100.00;98317.19;5029542;27;101185;-60
2020/12/05 02:14:52;;;;;;;19.00;13.43;;;6.00;99.90;;;4.42;100.00;98307.13;5029697;27;100027;-62
2020/12/05 02:17:20;;;;;;;16.27;12.53;;;5.80;99.90;;;4.23;100.00;98317.03;5030515;27;99954;-62
2020/12/05 02:19:50;;;;;;;16.17;12.53;;;6.00;99.90;;;4.23;100.00;98319.69;5029694;27;100130;-63
2020/12/05 02:22:24;;;;;;;17.77;11.63;;;5.90;99.90;;;4.25;100.00;98314.22;5029926;27;99951;-61
2020/12/05 02:24:53;;;;;;;16.50;11.53;;;6.00;99.90;;;4.24;100.00;98312.56;5028904;27;100111;-61
2020/12/05 02:27:21;;;;;;;14.73;11.20;;;6.00;99.90;;;4.20;100.00;98312.06;5029730;27;99967;-61
2020/12/05 02:29:47;;;;;;;17.50;11.97;;;5.90;99.90;;;4.32;100.00;98321.38;5029239;27;101341;-61
2020/12/05 02:32:14;;;;;;;15.63;11.57;;;6.00;99.90;;;4.30;100.00;98323.34;5029827;27;100416;-62
2020/12/05 02:34:40;;;;;;;16.60;12.53;;;6.00;99.90;;;4.26;100.00;98318.53;5044517;27;100303;-63
2020/12/05 02:37:12;;;;;;;15.17;11.10;;;5.90;99.90;;;4.26;100.00;98318.53;5029778;27;100010;-62
2020/12/05 02:39:42;;;;;;;16.30;11.90;;;5.90;99.90;;;4.42;100.00;98309.75;5028937;27;101617;-61
2020/12/05 02:42:12;;;;;;;15.77;12.07;;;5.90;99.90;;;4.25;100.00;98307.13;5029606;27;100933;-62
2020/12/05 02:44:46;;;;;;;15.00;11.50;;;5.80;99.90;;;4.09;100.00;98306.28;5029705;27;100040;-61
2020/12/05 02:47:12;;;;;;;16.67;12.87;;;5.90;99.90;;;4.37;100.00;98310.25;5029168;27;99919;-62
2020/12/05 02:49:39;;;;;;;15.97;10.87;;;6.00;99.90;;;4.39;100.00;98305.63;5028227;27;100776;-62
2020/12/05 02:52:05;;;;;;;14.93;11.67;;;5.90;99.90;;;4.27;100.00;98318.38;5029004;27;101560;-61
2020/12/05 02:54:32;;;;;;;16.23;11.40;;;6.00;99.90;;;4.44;100.00;98313.91;5030026;27;100022;-62
2020/12/05 02:56:59;;;;;;;15.70;11.97;;;6.30;99.90;;;4.50;100.00;98313.22;5029417;27;100126;-61
2020/12/05 02:59:27;;;;;;;16.83;12.17;;;6.00;99.90;;;4.63;100.00;98320.66;5028476;27;101373;-62
2020/12/05 03:01:53;;;;;;;15.13;11.53;;;5.90;99.90;;;4.67;100.00;98320.16;5028600;27;101344;-61
2020/12/05 03:04:19;;;;;;;20.97;11.20;;;6.10;99.90;;;4.74;100.00;98327.41;5029250;27;100036;-62
2020/12/05 03:06:46;;;;;;;14.50;10.67;;;6.10;99.90;;;4.75;100.00;98337.84;5029991;27;99988;-61
2020/12/05 03:09:13;;;;;;;15.77;11.67;;;6.20;99.90;;;4.89;100.00;98341.63;5029107;27;100876;-61
2020/12/05 03:11:40;;;;;;;14.40;11.57;;;6.30;99.90;;;4.88;100.00;98342.63;5028565;27;101264;-62
2020/12/05 03:14:07;;;;;;;13.67;10.50;;;6.40;99.90;;;4.91;100.00;98345.78;5028129;27;100173;-62
2020/12/05 03:16:34;;;;;;;14.17;10.50;;;6.40;99.90;;;4.79;100.00;98333.03;5028052;27;100172;-61
2020/12/05 03:19:01;;;;;;;12.73;10.47;;;6.40;99.90;;;4.73;100.00;98326.59;5028680;27;100990;-62
2020/12/05 03:21:27;;;;;;;12.97;10.37;;;6.40;99.90;;;4.77;100.00;98319.97;5028471;27;101217;-61
2020/12/05 03:23:54;;;;;;;14.03;9.90;;;6.50;99.90;;;4.58;100.00;98309.72;5029065;27;100270;-62
2020/12/05 03:26:20;;;;;;;12.23;9.23;;;6.30;99.90;;;4.67;100.00;98295.47;5028817;27;100323;-62
2020/12/05 03:28:47;;;;;;;13.63;10.73;;;6.40;99.90;;;4.65;100.00;98287.69;5028469;27;101727;-61
2020/12/05 03:31:24;;;;;;;13.60;9.60;;;6.40;99.90;;;4.68;100.00;98283.91;5028816;27;100432;-62
2020/12/05 03:33:52;;;;;;;13.27;10.13;;;6.30;99.90;;;4.56;100.00;98280.78;5029285;27;100060;-61
2020/12/05 03:36:18;;;;;;;11.97;8.43;;;6.30;99.90;;;4.62;100.00;98264.19;5028836;27;100204;-61
2020/12/05 03:38:46;;;;;;;14.17;10.40;;;6.80;99.90;;;4.58;100.00;98262.88;5028736;27;100631;-61
2020/12/05 03:41:14;;;;;;;13.17;11.03;;;6.30;99.90;;;5.03;100.00;98233.09;5027540;27;100573;-61
2020/12/05 03:43:41;;;;;;;13.47;9.27;;;6.30;99.90;;;4.98;100.00;98208.91;5028368;27;100370;-62
2020/12/05 03:46:07;;;;;;;12.07;8.77;;;6.40;99.90;;;5.10;100.00;98185.50;5027720;27;100166;-61
2020/12/05 03:48:34;;;;;;;14.23;8.93;;;6.50;99.90;;;4.81;100.00;98153.53;5028372;27;100682;-61
2020/12/05 03:51:02;;;;;;;13.67;9.83;;;6.40;99.90;;;4.60;100.00;98165.53;5028165;27;101259;-62
2020/12/05 03:53:28;;;;;;;14.43;9.57;;;6.40;99.90;;;4.58;100.00;98187.88;5028776;27;100069;-62
2020/12/05 03:55:54;;;;;;;12.37;9.03;;;7.30;99.90;;;4.66;100.00;98201.13;5028527;27;100020;-62
2020/12/05 03:58:22;;;;;;;13.30;8.93;;;6.30;99.90;;;4.56;100.00;98211.91;5027674;27;101004;-61
2020/12/05 04:00:49;;;;;;;11.70;9.43;;;6.30;99.90;;;4.75;100.00;98212.50;5027557;27;100626;-62
2020/12/05 04:03:15;;;;;;;14.57;9.97;;;6.30;99.90;;;4.65;100.00;98213.53;5028081;27;100281;-61
2020/12/05 04:05:42;;;;;;;12.60;9.23;;;6.20;99.90;;;4.62;100.00;98215.69;5027406;27;100057;-62
2020/12/05 04:08:09;;;;;;;13.87;9.50;;;6.20;99.90;;;4.52;100.00;98207.13;5027735;27;100869;-62
2020/12/05 04:10:36;;;;;;;14.77;9.90;;;6.20;99.90;;;4.59;100.00;98219.50;5025811;27;103555;-62
2020/12/05 04:13:02;;;;;;;13.93;10.03;;;6.10;99.90;;;4.76;100.00;98228.22;5027821;27;100236;-61
2020/12/05 04:15:29;;;;;;;12.67;9.40;;;6.30;99.90;;;4.74;100.00;98224.09;5027457;27;100158;-61
2020/12/05 04:17:55;;;;;;;11.53;8.53;;;6.20;99.90;;;4.81;100.00;98198.56;5027623;27;101693;-61
2020/12/05 04:20:22;;;;;;;13.10;9.20;;;6.20;99.90;;;4.62;100.00;98205.09;5028209;27;100553;-61
2020/12/05 04:22:49;;;;;;;13.87;9.23;;;7.40;99.90;;;4.55;100.00;98199.66;5028206;27;100302;-61
2020/12/05 04:25:16;;;;;;;10.03;8.83;;;6.20;99.90;;;4.69;100.00;98216.66;5028104;27;100009;-61
2020/12/05 04:27:42;;;;;;;12.83;9.43;;;6.30;99.90;;;4.53;100.00;98212.25;5027193;27;100935;-61
2020/12/05 04:30:09;;;;;;;12.70;9.53;;;6.60;99.90;;;4.51;100.00;98194.88;5042410;27;101101;-62
2020/12/05 04:32:35;;;;;;;13.43;9.33;;;6.20;99.90;;;4.55;100.00;98204.97;5027899;27;100020;-61
2020/12/05 04:35:02;;;;;;;11.93;8.90;;;6.20;99.90;;;4.43;100.00;98214.28;5027529;27;100002;-61
2020/12/05 04:37:28;;;;;;;13.60;10.10;;;6.00;99.90;;;4.66;100.00;98248.78;5027462;27;100947;-59
2020/12/05 04:39:54;;;;;;;16.80;10.97;;;6.10;99.90;;;4.65;100.00;98269.16;5026914;27;100945;-61
2020/12/05 04:42:22;;;;;;;12.43;9.30;;;6.10;99.90;;;4.48;100.00;98245.53;5027821;27;99956;-62
2020/12/05 04:44:49;;;;;;;11.67;9.33;;;6.00;99.90;;;4.51;100.00;98230.13;5028378;27;100050;-62
2020/12/05 04:47:17;;;;;;;12.43;9.30;;;6.00;99.90;;;4.69;100.00;98248.47;5027232;27;100719;-61
2020/12/05 04:49:44;;;;;;;12.03;8.77;;;6.10;99.90;;;4.73;100.00;98238.31;5027396;27;100348;-62
2020/12/05 04:52:24;;;;;;;11.17;7.93;;;6.10;99.90;;;5.02;100.00;98223.47;5027676;27;100018;-62
2020/12/05 04:54:53;;;;;;;14.53;9.47;;;6.10;99.90;;;4.99;100.00;98236.25;5027179;27;99935;-62
2020/12/05 04:57:25;;;;;;;12.37;9.03;;;6.30;99.90;;;5.10;100.00;98249.09;5026652;27;101462;-61
2020/12/05 04:59:53;;;;;;;12.67;8.43;;;6.30;99.90;;;5.23;100.00;98246.72;5026615;27;100817;-61
2020/12/05 05:02:28;;;;;;;9.87;8.70;;;6.30;99.90;;;5.33;100.00;98243.84;5027191;27;100018;-62
2020/12/05 05:04:54;;;;;;;10.63;8.60;;;6.30;99.90;;;5.25;100.00;98239.44;5027029;27;100589;-60
2020/12/05 05:07:21;;;;;;;11.83;9.17;;;6.40;99.90;;;5.13;100.00;98226.75;5027341;27;100913;-61
2020/12/05 05:09:52;;;;;;;12.23;8.60;;;6.40;99.90;;;5.09;100.00;98213.00;5027177;27;100609;-61
2020/12/05 05:12:31;;;;;;;13.43;9.33;;;6.90;99.90;;;4.96;100.00;98207.44;5027273;27;100039;-60
2020/12/05 05:14:58;;;;;;;10.20;8.33;;;6.50;99.90;;;4.91;100.00;98223.03;5027044;27;100350;-61
2020/12/05 05:17:24;;;;;;;12.23;8.77;;;6.50;99.90;;;4.91;100.00;98255.66;5026551;27;101107;-61
2020/12/05 05:19:52;;;;;;;9.93;7.83;;;6.40;99.90;;;4.92;100.00;98251.19;5026522;27;101039;-62
2020/12/05 05:22:21;;;;;;;12.80;8.57;;;6.40;99.90;;;5.21;100.00;98247.88;5027264;27;100091;-61
2020/12/05 05:25:02;;;;;;;9.97;8.43;;;6.40;99.90;;;5.49;100.00;98266.81;5026499;27;100061;-62
2020/12/05 05:27:29;;;;;;;10.07;7.63;;;6.40;99.90;;;5.45;100.00;98271.63;5027136;27;99948;-61
2020/12/05 05:30:07;;;;;;;10.07;8.27;;;6.40;99.90;;;5.42;100.00;98274.66;5027153;27;100560;-62
2020/12/05 05:32:42;;;;;;;10.00;7.77;;;6.50;99.90;;;5.70;100.00;98281.09;5026663;27;100082;-63
2020/12/05 05:35:12;;;;;;;9.67;7.23;;;6.60;99.90;;;5.84;100.00;98270.72;5027029;27;99993;-61
2020/12/05 05:37:40;;;;;;;9.23;7.30;;;6.70;99.90;;;5.92;100.00;98278.66;5024563;27;100189;-61
2020/12/05 05:40:08;;;;;;;9.77;8.00;;;6.80;99.90;;;5.88;100.00;98283.50;5026653;27;100317;-61
2020/12/05 05:42:37;;;;;;;9.93;8.37;;;7.00;99.90;;;5.87;100.00;98283.63;5026822;27;100107;-61
2020/12/05 05:45:20;;;;;;;9.30;7.43;;;7.00;99.90;;;5.91;100.00;98300.91;5026488;27;99919;-62
2020/12/05 05:47:48;;;;;;;10.37;7.93;;;7.10;99.90;;;5.82;100.00;98309.88;5026979;27;100772;-63
2020/12/05 05:50:26;;;;;;;10.73;8.27;;;7.10;99.90;;;5.72;100.00;98324.19;5026097;27;100550;-62
2020/12/05 05:52:57;;;;;;;10.07;7.07;;;7.20;99.90;;;5.65;100.00;98331.22;5027272;27;99982;-62
2020/12/05 05:55:40;;;;;;;11.97;7.77;;;7.20;99.90;;;5.70;100.00;98342.13;5026607;27;99928;-61
2020/12/05 05:58:09;;;;;;;8.87;7.47;;;7.20;99.90;;;5.96;100.00;98341.00;5024235;27;102628;-62
2020/12/05 06:00:39;;;;;;;10.20;7.43;;;7.10;99.90;;;5.93;100.00;98336.88;5026387;27;100636;-62
2020/12/05 06:03:18;;;;;;;10.30;7.57;;;7.00;99.90;;;5.71;100.00;98353.56;5026804;27;100042;-62
2020/12/05 06:05:47;;;;;;;9.67;7.13;;;7.30;99.90;;;5.67;100.00;98365.53;5026523;27;100003;-62
2020/12/05 06:08:18;;;;;;;12.87;9.03;;;7.10;99.90;;;5.78;100.00;98381.06;5025813;27;101530;-61
2020/12/05 06:10:53;;;;;;;11.83;8.23;;;7.20;99.90;;;5.85;100.00;98367.91;5025840;27;101427;-62
2020/12/05 06:13:25;;;;;;;12.43;7.90;;;7.10;99.90;;;5.80;100.00;98372.94;5026391;27;100273;-62
2020/12/05 06:15:52;;;;;;;9.70;7.47;;;7.20;99.90;;;5.54;100.00;98384.66;5024434;27;100294;-62
2020/12/05 06:18:20;;;;;;;10.43;7.83;;;7.20;99.90;;;5.73;100.00;98386.88;5025838;27;101603;-61
2020/12/05 06:20:48;;;;;;;11.03;8.77;;;7.00;99.90;;;6.00;100.00;98379.47;5025801;27;101040;-61
2020/12/05 06:23:28;;;;;;;10.37;7.63;;;7.00;99.90;;;5.87;100.00;98392.47;5026387;27;99971;-61
2020/12/05 06:25:56;;;;;;;10.30;7.30;;;8.10;99.90;;;5.68;100.00;98399.03;5026626;27;100202;-61
2020/12/05 06:28:24;;;;;;;9.20;7.33;;;7.20;99.90;;;5.23;100.00;98404.97;5028420;27;100602;-61
2020/12/05 06:30:52;;;;;;;11.27;8.33;;;7.00;99.90;;;5.07;100.00;98397.88;5027090;27;103012;-61
2020/12/05 06:33:40;;;;;;;9.37;7.60;;;7.00;99.90;;;4.80;100.00;98407.06;5029328;27;100271;-60
2020/12/05 06:36:41;;;;;;;12.17;7.70;;;6.90;99.90;;;4.42;100.00;98410.38;5029506;27;100087;-62
2020/12/05 06:39:18;;;;;;;11.27;8.10;;;6.90;99.90;;;4.31;100.00;98417.66;5029300;27;100382;-61
2020/12/05 06:41:47;;;;;;;10.70;8.00;;;6.70;99.90;;;4.45;100.00;98421.47;5029594;27;101462;-61
2020/12/05 06:44:17;;;;;;;11.00;8.33;;;8.00;99.90;;;4.53;100.00;98424.13;5029228;27;100298;-61
2020/12/05 06:46:56;;;;;;;13.10;9.80;;;6.60;99.90;;;4.20;100.00;98449.72;5028252;27;100435;-61
2020/12/05 06:49:49;;;;;;;11.33;8.10;;;6.50;99.90;;;4.70;100.00;98431.06;5026514;27;100778;-61
2020/12/05 06:52:46;;;;;;;9.87;7.90;;;6.40;99.90;;;4.92;100.00;98431.41;5027310;27;100439;-61
2020/12/05 06:55:17;;;;;;;10.43;8.07;;;6.40;99.90;;;5.52;100.00;98426.44;5026591;27;100254;-63
2020/12/05 06:57:44;;;;;;;10.17;7.87;;;6.40;99.90;;;5.61;100.00;98432.53;5026702;27;100048;-63
2020/12/05 07:00:21;;;;;;;11.90;9.07;;;6.60;99.90;;;5.63;100.00;98433.22;5025234;27;101764;-62
2020/12/05 07:02:56;;;;;;;12.87;9.03;;;7.20;99.90;;;5.80;100.00;98453.38;5041418;27;101148;-62
2020/12/05 07:05:40;;;;;;;12.77;10.20;;;6.80;99.90;;;5.96;100.00;98449.84;5026975;27;100291;-61
2020/12/05 07:08:25;;;;;;;13.83;10.90;;;7.10;99.90;;;6.11;100.00;98451.59;5024770;27;100313;-61
2020/12/05 07:10:56;;;;;;;12.87;9.37;;;7.10;99.90;;;6.13;100.00;98459.38;5026450;27;100708;-61
2020/12/05 07:13:26;;;;;;;14.80;11.37;;;7.10;99.90;;;6.12;100.00;98468.34;5027443;27;100862;-62
2020/12/05 07:16:21;;;;;;;14.37;10.27;;;7.30;99.90;;;6.13;100.00;98472.66;5026613;27;100039;-61
2020/12/05 07:18:50;;;;;;;12.80;10.13;;;7.30;99.90;;;6.12;100.00;98476.31;5027570;27;100015;-62
2020/12/05 07:21:17;;;;;;;14.07;9.83;;;8.40;99.90;;;6.04;100.00;98479.84;5041466;27;100297;-61
2020/12/05 07:23:44;;;;;;;14.33;10.87;;;7.60;99.90;;;5.95;100.00;98483.53;5026242;27;100650;-61
2020/12/05 07:26:11;;;;;;;15.03;10.63;;;7.60;99.90;;;6.01;100.00;98488.16;5026296;27;100165;-62
2020/12/05 07:28:38;;;;;;;14.30;11.27;;;8.60;99.90;;;5.96;100.00;98494.97;5027097;27;99921;-62
2020/12/05 07:31:05;;;;;;;13.33;10.47;;;7.50;99.90;;;6.09;100.00;98493.41;5025441;27;101411;-62
2020/12/05 07:33:35;;;;;;;14.53;10.70;;;7.50;99.90;;;6.10;100.00;98504.88;5027179;27;100427;-62
2020/12/05 07:36:06;;;;;;;14.17;11.20;;;7.50;99.90;;;5.97;100.00;98523.16;5026153;27;100332;-61
2020/12/05 07:38:35;;;;;;;17.10;13.13;;;7.60;99.90;;;5.96;100.00;98542.75;5025966;27;99827;-61
2020/12/05 07:41:09;;;;;;;16.53;11.70;;;7.70;99.90;;;6.03;100.00;98544.56;5026212;27;100654;-61
2020/12/05 07:43:36;;;;;;;12.97;10.63;;;7.70;99.90;;;6.19;100.00;98558.75;5027327;27;100802;-62
2020/12/05 07:46:05;;;;;;;14.80;11.50;;;7.80;99.90;;;6.31;100.00;98578.63;5026366;27;100081;-61
2020/12/05 07:48:32;;;;;;;18.30;12.40;;;7.80;99.90;;;6.46;100.00;98592.84;5026863;27;100224;-63
2020/12/05 07:50:59;;;;;;;15.17;12.20;;;8.20;99.90;;;6.44;100.00;98608.97;5025624;27;100015;-61
2020/12/05 07:53:32;;;;;;;14.70;11.07;;;8.30;99.90;;;6.33;100.00;98601.38;5026148;27;100412;-61
2020/12/05 07:56:14;;;;;;;16.70;11.53;;;8.30;99.90;;;6.39;100.00;98603.34;5025481;27;100303;-61
2020/12/05 07:58:49;;;;;;;16.13;11.47;;;8.30;99.90;;;6.62;100.00;98598.09;5026249;27;100194;-62
2020/12/05 08:01:51;;;;;;;14.93;11.10;;;8.50;99.90;;;6.65;100.00;98607.56;5025574;27;101467;-62
2020/12/05 08:04:48;;;;;;;12.33;9.73;;;8.60;99.90;;;6.68;100.00;98592.06;5025659;27;100580;-62
2020/12/05 08:07:35;;;;;;;13.33;10.07;;;8.70;99.90;;;6.82;100.00;98601.13;5025968;27;100207;-62
2020/12/05 08:10:06;;;;;;;15.60;10.87;;;8.80;99.90;;;7.01;100.00;98613.16;5026136;27;100136;-61
2020/12/05 08:13:19;;;;;;;14.17;10.50;;;10.00;99.90;;;7.22;100.00;98618.66;5025699;27;101024;-62
2020/12/05 08:15:50;;;;;;;11.33;9.57;;;10.50;99.90;;;7.19;100.00;98624.31;5024935;27;100861;-62
2020/12/05 08:18:21;;;;;;;13.57;10.13;;;9.80;99.10;;;7.12;100.00;98621.56;5025513;27;99978;-62
2020/12/05 08:20:49;;;;;;;12.93;10.63;;;9.70;98.60;;;7.14;100.00;98627.53;5023725;27;100120;-62
2020/12/05 08:23:27;;;;;;;13.77;10.57;;;10.90;97.40;;;7.32;100.00;98640.53;5025080;27;101864;-62
2020/12/05 08:25:58;;;;;;;11.77;9.43;;;10.10;97.00;;;7.51;100.00;98660.53;5025387;27;100551;-62
2020/12/05 08:28:26;;;;;;;12.77;10.00;;;10.40;96.80;;;7.60;100.00;98671.94;5025793;27;100266;-62
2020/12/05 08:30:55;;;;;;;12.23;9.83;;;10.50;96.00;;;7.86;100.00;98664.38;5025804;27;100184;-63
2020/12/05 08:33:22;;;;;;;14.90;9.70;;;10.60;95.60;;;7.83;100.00;98656.75;5025248;27;101359;-63
2020/12/05 08:35:49;;;;;;;12.30;8.20;;;10.90;94.00;;;7.86;100.00;98648.41;5025744;27;100644;-64
2020/12/05 08:38:24;;;;;;;10.17;8.43;;;11.00;92.80;;;7.87;100.00;98647.41;5025262;27;100035;-62
2020/12/05 08:41:02;;;;;;;12.87;9.30;;;11.10;92.20;;;7.68;100.00;98634.59;5025481;27;99952;-63
2020/12/05 08:43:29;;;;;;;11.17;8.97;;;11.30;92.00;;;7.42;100.00;98603.03;5024502;27;100115;-64
2020/12/05 08:45:55;;;;;;;10.93;8.60;;;11.20;90.90;;;7.48;100.00;98587.19;5024275;27;100022;-62
2020/12/05 08:48:23;;;;;;;10.27;8.77;;;11.10;91.40;;;7.71;100.00;98611.09;5025363;27;100236;-62
2020/12/05 08:50:49;;;;;;;10.37;8.60;;;11.80;92.30;;;7.76;100.00;98671.81;5024648;27;100229;-62
2020/12/05 08:53:20;;;;;;;12.33;9.33;;;12.20;91.70;;;7.85;100.00;98729.31;5026173;27;100939;-62
2020/12/05 08:55:48;;;;;;;11.47;8.57;;;11.40;91.50;;;7.96;100.00;98726.22;5025586;27;100361;-62
2020/12/05 08:58:16;;;;;;;11.10;8.43;;;11.40;91.30;;;8.01;100.00;98723.84;5025010;27;99993;-62
2020/12/05 09:00:42;;;;;;;9.13;7.23;;;11.50;90.60;;;8.08;100.00;98755.91;5025102;27;100071;-64
2020/12/05 09:03:23;;;;;;;11.10;8.30;;;12.30;90.00;;;8.21;100.00;98753.47;5023851;27;101453;-62
2020/12/05 09:05:51;;;;;;;13.23;8.07;;;11.80;90.00;;;8.20;100.00;98749.97;5024812;27;101396;-62
2020/12/05 09:08:33;;;;;;;11.17;8.00;;;11.80;88.60;;;8.29;100.00;98756.88;5024099;27;100193;-62
2020/12/05 09:11:00;;;;;;;10.80;8.27;;;11.80;89.20;;;8.18;100.00;98749.31;5024247;27;100535;-64
2020/12/05 09:13:27;;;;;;;10.47;7.93;;;11.90;88.00;;;8.07;100.00;98757.75;5024451;27;100141;-62
2020/12/05 09:16:01;;;;;;;10.57;7.83;;;12.00;86.20;;;8.01;100.00;98763.81;5024570;27;101336;-62
2020/12/05 09:18:39;;;;;;;10.13;7.47;;;11.80;86.50;;;7.83;100.00;98796.06;5022373;27;99925;-62
2020/12/05 09:21:12;;;;;;;9.77;7.77;;;12.00;85.30;;;7.70;100.00;98809.13;5024837;27;100324;-62
2020/12/05 09:23:39;;;;;;;9.80;7.63;;;11.70;85.80;;;7.65;100.00;98810.66;5024131;27;101784;-62
2020/12/05 09:26:07;;;;;;;10.73;7.57;;;11.90;88.10;;;7.48;100.00;98810.75;5024655;27;100557;-64
2020/12/05 09:28:34;;;;;;;10.03;8.07;;;11.50;89.50;;;7.44;100.00;98821.91;5024481;27;100215;-62
2020/12/05 09:31:06;;;;;;;9.83;7.80;;;12.00;90.20;;;7.39;100.00;98819.78;5038720;27;100234;-63
2020/12/05 09:33:35;;;;;;;9.57;7.27;;;11.00;90.40;;;7.32;100.00;98839.25;5024149;27;100696;-62
2020/12/05 09:36:01;;;;;;;12.00;8.27;;;10.70;90.70;;;7.26;100.00;98854.09;5023726;27;100404;-63
2020/12/05 09:38:27;;;;;;;13.60;9.97;;;10.60;91.30;;;7.23;100.00;98865.06;5024431;27;100099;-63
2020/12/05 09:40:54;;;;;;;12.87;8.37;;;10.30;91.70;;;7.26;100.00;98877.19;5024350;27;100593;-62
2020/12/05 09:43:20;;;;;;;12.03;8.93;;;10.30;92.20;;;7.25;100.00;98859.56;5024213;27;100133;-63
2020/12/05 09:45:47;;;;;;;12.93;9.07;;;11.10;93.10;;;7.23;100.00;98875.69;5023891;27;100830;-62
2020/12/05 09:48:14;;;;;;;12.87;9.03;;;9.50;92.60;;;7.40;100.00;98879.97;5023925;27;100207;-63
2020/12/05 09:50:41;;;;;;;13.43;9.37;;;10.30;93.10;;;7.50;100.00;98856.66;5039178;27;100272;-62
2020/12/05 09:53:08;;;;;;;12.03;8.90;;;10.40;92.80;;;7.65;100.00;98850.59;5023895;27;101064;-62
2020/12/05 09:55:34;;;;;;;12.77;8.83;;;10.60;92.70;;;8.18;100.00;98841.75;5024145;27;100727;-62
2020/12/05 09:58:01;;;;;;;12.27;9.40;;;10.30;92.30;;;8.17;100.00;98840.09;5024406;27;100477;-62
2020/12/05 10:00:28;;;;;;;11.37;8.70;;;11.20;91.90;;;8.27;100.00;98862.84;5023897;27;100117;-62
2020/12/05 10:02:54;;;;;;;10.80;8.73;;;12.90;91.40;;;8.29;100.00;98900.78;5025961;27;100557;-63
2020/12/05 10:05:21;;;;;;;9.80;7.83;;;13.20;89.40;;;8.23;100.00;98914.81;5027355;27;101148;-62
2020/12/05 10:07:49;;;;;;;11.53;8.60;;;12.40;85.40;;;8.21;100.00;98910.69;5028071;27;100075;-62
2020/12/05 10:10:16;;;;;;;12.87;9.00;;;13.50;83.20;;;8.08;100.00;98937.91;5027702;27;100074;-62
2020/12/05 10:12:44;;;;;;;10.47;8.20;;;12.40;79.90;;;8.21;100.00;98916.00;5027873;27;101140;-64
2020/12/05 10:15:13;;;;;;;11.77;9.30;;;12.60;80.70;;;8.35;100.00;98911.78;5028024;27;100476;-62
2020/12/05 10:17:40;;;;;;;12.63;9.00;;;12.70;80.20;;;8.63;100.00;98875.59;5028370;27;100219;-63
2020/12/05 10:20:08;;;;;;;9.37;7.63;;;12.90;80.70;;;8.67;100.00;98868.88;5024854;27;100274;-62
2020/12/05 10:22:35;;;;;;;11.17;9.00;;;13.30;80.30;;;8.69;100.00;98888.19;5027082;27;100659;-63